Time;durP1;ratioP1;P1;durP2;ratioP2;P2;SDS_P1;SDS_P2;PMS_P1;PMS_P2;Temp;Humidity;BMP_temperature;BMP_pressure;BME280_temperature;BME280_humidity;BME280_pressure;Samples;Min_cycle;Max_cycle;Signal;HPM_P1;HPM_P2
2022/06/13 00:01:24;;;;;;;9.80;5.10;;;;;;;;;;4996591;28;20049;-74
2022/06/13 00:03:52;;;;;;;9.48;5.68;;;;;;;;;;5014247;28;20080;-74
2022/06/13 00:06:18;;;;;;;8.23;5.53;;;;;;;;;;5003636;28;20058;-73
2022/06/13 00:08:45;;;;;;;9.50;5.93;;;;;;;;;;5013755;28;20053;-73
2022/06/13 00:11:14;;;;;;;9.93;5.43;;;;;;;;;;4980587;28;20052;-73
2022/06/13 00:13:43;;;;;;;7.18;5.45;;;;;;;;;;4996527;28;20147;-73
2022/06/13 00:16:10;;;;;;;9.95;5.68;;;;;;;;;;4996306;28;20053;-73
2022/06/13 00:18:37;;;;;;;7.75;5.70;;;;;;;;;;5018368;28;20046;-73
2022/06/13 00:21:04;;;;;;;8.82;6.03;;;;;;;;;;4980006;28;20049;-73
2022/06/13 00:23:31;;;;;;;6.85;5.57;;;;;;;;;;5027954;28;20051;-73
2022/06/13 00:25:58;;;;;;;9.07;6.63;;;;;;;;;;5032494;28;20515;-74
2022/06/13 00:28:24;;;;;;;8.68;5.68;;;;;;;;;;5017118;28;20177;-74
2022/06/13 00:30:51;;;;;;;7.68;5.60;;;;;;;;;;5013156;28;20123;-74
2022/06/13 00:33:18;;;;;;;7.63;5.40;;;;;;;;;;5013398;28;20053;-74
2022/06/13 00:35:44;;;;;;;6.10;5.05;;;;;;;;;;5028026;28;20048;-74
2022/06/13 00:38:11;;;;;;;7.82;5.35;;;;;;;;;;5033337;28;20107;-74
2022/06/13 00:40:38;;;;;;;7.05;4.72;;;;;;;;;;5015247;28;20058;-74
2022/06/13 00:43:06;;;;;;;12.70;6.45;;;;;;;;;;5018824;28;20049;-73
2022/06/13 00:45:34;;;;;;;7.85;5.30;;;;;;;;;;5032899;28;20475;-73
2022/06/13 00:48:02;;;;;;;6.65;4.90;;;;;;;;;;5018697;28;20065;-73
2022/06/13 00:50:30;;;;;;;7.82;4.88;;;;;;;;;;5031048;28;20045;-73
2022/06/13 00:53:12;;;;;;;9.63;5.18;;;;;;;;;;5032781;28;20059;-73
2022/06/13 00:55:41;;;;;;;7.95;4.82;;;;;;;;;;4985510;28;20045;-73
2022/06/13 00:58:07;;;;;;;6.90;5.65;;;;;;;;;;4995498;28;20425;-73
2022/06/13 01:00:35;;;;;;;11.10;5.53;;;;;;;;;;5015357;28;20058;-73
2022/06/13 01:03:03;;;;;;;8.32;5.82;;;;;;;;;;5015013;28;20140;-73
2022/06/13 01:05:33;;;;;;;8.82;6.65;;;;;;;;;;5001133;28;20061;-73
2022/06/13 01:08:01;;;;;;;7.03;5.85;;;;;;;;;;4980019;28;20463;-73
2022/06/13 01:13:13;;;;;;;8.88;4.95;;;;;;;;;;4997874;28;20398;-73
2022/06/13 01:15:53;;;;;;;7.78;4.97;;;;;;;;;;4995179;28;20050;-73
2022/06/13 01:18:42;;;;;;;8.35;5.40;;;;;;;;;;5007557;28;20053;-73
2022/06/13 01:21:15;;;;;;;7.18;5.78;;;;;;;;;;5014598;28;20060;-73
2022/06/13 01:23:57;;;;;;;9.43;6.30;;;;;;;;;;5013884;28;20050;-73
2022/06/13 01:26:45;;;;;;;8.57;5.70;;;;;;;;;;4976643;28;20057;-72
2022/06/13 01:29:36;;;;;;;9.10;5.82;;;;;;;;;;4977653;28;20050;-72
2022/06/13 01:32:08;;;;;;;8.02;5.95;;;;;;;;;;4977832;28;20062;-73
2022/06/13 01:34:58;;;;;;;8.57;5.78;;;;;;;;;;5010201;28;20103;-72
2022/06/13 01:37:52;;;;;;;7.93;5.60;;;;;;;;;;5015152;28;20045;-73
2022/06/13 01:40:22;;;;;;;9.52;6.05;;;;;;;;;;5031795;28;20419;-72
2022/06/13 01:43:11;;;;;;;10.52;6.20;;;;;;;;;;5031859;28;20127;-72
2022/06/13 01:45:46;;;;;;;6.28;5.43;;;;;;;;;;5014221;28;20057;-72
2022/06/13 01:48:17;;;;;;;7.05;6.35;;;;;;;;;;4999229;28;20053;-72
2022/06/13 01:50:47;;;;;;;8.90;6.38;;;;;;;;;;5031559;28;20084;-72
2022/06/13 01:53:28;;;;;;;10.13;6.53;;;;;;;;;;5031718;28;20542;-73
2022/06/13 01:56:12;;;;;;;12.43;6.78;;;;;;;;;;5032956;28;20053;-73
2022/06/13 01:58:56;;;;;;;11.15;6.38;;;;;;;;;;5012025;28;20058;-72
2022/06/13 02:01:39;;;;;;;8.50;5.55;;;;;;;;;;5033721;28;20060;-72
2022/06/13 02:04:14;;;;;;;10.10;5.05;;;;;;;;;;4997724;28;20068;-72
2022/06/13 02:06:44;;;;;;;8.77;6.00;;;;;;;;;;5014163;28;20408;-72
2022/06/13 02:09:20;;;;;;;9.75;5.75;;;;;;;;;;4989025;28;20049;-72
2022/06/13 02:11:52;;;;;;;7.88;5.80;;;;;;;;;;4983292;28;20129;-72
2022/06/13 02:14:34;;;;;;;9.40;5.50;;;;;;;;;;5014994;28;20062;-72
2022/06/13 02:17:12;;;;;;;5.82;5.25;;;;;;;;;;5014281;28;20056;-72
2022/06/13 02:19:48;;;;;;;6.63;5.28;;;;;;;;;;5031361;28;20057;-72
2022/06/13 02:22:27;;;;;;;7.88;5.05;;;;;;;;;;5036579;28;20049;-72
2022/06/13 02:25:15;;;;;;;8.85;5.32;;;;;;;;;;5015753;28;20045;-72
2022/06/13 02:27:41;;;;;;;6.80;4.97;;;;;;;;;;5031348;28;20053;-72
2022/06/13 02:30:11;;;;;;;8.80;4.72;;;;;;;;;;4997922;28;20061;-73
2022/06/13 02:33:03;;;;;;;7.05;5.03;;;;;;;;;;4997683;28;20061;-73
2022/06/13 02:35:38;;;;;;;6.72;4.20;;;;;;;;;;5013529;28;20492;-73
2022/06/13 02:38:21;;;;;;;5.53;4.15;;;;;;;;;;5014077;28;20053;-73
2022/06/13 02:41:03;;;;;;;7.70;4.20;;;;;;;;;;5005674;28;20046;-73
2022/06/13 02:43:41;;;;;;;6.85;3.30;;;;;;;;;;4994829;28;20755;-73
2022/06/13 02:46:22;;;;;;;5.13;3.22;;;;;;;;;;4994248;28;20050;-73
2022/06/13 02:48:53;;;;;;;5.00;3.78;;;;;;;;;;5024284;28;20495;-73
2022/06/13 02:51:33;;;;;;;7.43;3.60;;;;;;;;;;5017292;28;20056;-73
2022/06/13 02:54:42;;;;;;;6.70;3.80;;;;;;;;;;4983072;28;20054;-73
2022/06/13 02:57:34;;;;;;;5.22;3.72;;;;;;;;;;4985284;28;20055;-73
2022/06/13 03:00:03;;;;;;;8.00;4.25;;;;;;;;;;4995616;28;20058;-73
2022/06/13 03:02:39;;;;;;;6.05;3.42;;;;;;;;;;4995314;28;20047;-74
2022/06/13 03:05:33;;;;;;;4.47;3.15;;;;;;;;;;4979019;28;20050;-74
2022/06/13 03:08:28;;;;;;;3.65;3.13;;;;;;;;;;5018558;28;20054;-73
2022/06/13 03:11:00;;;;;;;5.47;2.83;;;;;;;;;;5014924;28;20050;-74
2022/06/13 03:13:30;;;;;;;7.05;3.47;;;;;;;;;;5046249;28;20510;-73
2022/06/13 03:16:02;;;;;;;7.65;3.15;;;;;;;;;;5010300;28;20045;-74
2022/06/13 03:18:32;;;;;;;9.95;3.63;;;;;;;;;;4998634;28;20458;-74
2022/06/13 03:21:11;;;;;;;6.72;4.07;;;;;;;;;;5001238;28;20054;-73
2022/06/13 03:23:44;;;;;;;5.28;3.20;;;;;;;;;;4983587;28;20062;-73
2022/06/13 03:26:21;;;;;;;6.28;3.35;;;;;;;;;;5021986;28;20049;-73
2022/06/13 03:28:58;;;;;;;9.82;3.60;;;;;;;;;;5001232;28;20566;-73
2022/06/13 03:31:54;;;;;;;4.70;3.20;;;;;;;;;;5034584;28;20052;-73
2022/06/13 03:34:25;;;;;;;10.90;4.07;;;;;;;;;;5017026;28;20053;-73
2022/06/13 03:37:13;;;;;;;9.77;3.72;;;;;;;;;;4997289;28;20050;-73
2022/06/13 03:39:53;;;;;;;9.68;3.70;;;;;;;;;;4980283;28;20054;-72
2022/06/13 03:42:33;;;;;;;8.45;4.28;;;;;;;;;;4978693;28;20318;-72
2022/06/13 03:45:07;;;;;;;7.68;3.17;;;;;;;;;;4996972;28;20073;-72
2022/06/13 03:47:42;;;;;;;6.00;3.70;;;;;;;;;;5014225;28;20054;-73
2022/06/13 03:50:17;;;;;;;11.57;3.25;;;;;;;;;;4996994;28;20061;-72
2022/06/13 03:52:46;;;;;;;8.88;3.47;;;;;;;;;;4980911;28;20056;-72
2022/06/13 03:55:35;;;;;;;11.30;3.67;;;;;;;;;;4996635;28;20046;-72
2022/06/13 03:58:10;;;;;;;12.02;3.78;;;;;;;;;;4996715;28;20058;-72
2022/06/13 04:00:44;;;;;;;9.15;3.70;;;;;;;;;;5013179;28;20054;-72
2022/06/13 04:03:11;;;;;;;9.35;3.55;;;;;;;;;;4981328;28;20493;-72
2022/06/13 04:06:02;;;;;;;10.57;3.80;;;;;;;;;;4996535;28;20061;-70
2022/06/13 04:08:31;;;;;;;9.50;4.05;;;;;;;;;;5004254;28;20398;-70
2022/06/13 04:11:09;;;;;;;6.80;3.30;;;;;;;;;;4996466;28;20106;-70
2022/06/13 04:14:02;;;;;;;9.20;3.75;;;;;;;;;;4996809;28;20054;-70
2022/06/13 04:16:50;;;;;;;8.35;3.35;;;;;;;;;;4996439;28;20519;-70
2022/06/13 04:19:40;;;;;;;8.90;3.33;;;;;;;;;;5012973;28;20053;-70
2022/06/13 04:22:24;;;;;;;7.18;2.95;;;;;;;;;;4996212;28;20053;-70
2022/06/13 04:25:13;;;;;;;8.70;3.50;;;;;;;;;;4996162;28;20046;-70
2022/06/13 04:27:40;;;;;;;9.13;3.60;;;;;;;;;;5013587;28;20111;-70
2022/06/13 04:30:14;;;;;;;11.85;3.53;;;;;;;;;;4996285;28;20053;-70
2022/06/13 04:32:48;;;;;;;12.52;4.05;;;;;;;;;;4978327;28;20057;-69
2022/06/13 04:35:15;;;;;;;10.23;3.42;;;;;;;;;;4994459;28;20061;-70
2022/06/13 04:37:41;;;;;;;13.30;3.35;;;;;;;;;;4993654;28;20436;-70
2022/06/13 04:40:12;;;;;;;8.48;3.92;;;;;;;;;;4993752;28;20064;-70
2022/06/13 04:42:38;;;;;;;9.32;3.20;;;;;;;;;;4977862;28;20537;-69
2022/06/13 04:45:29;;;;;;;6.63;2.88;;;;;;;;;;4977341;28;20061;-69
2022/06/13 04:47:57;;;;;;;9.50;3.13;;;;;;;;;;4984247;28;20046;-71
2022/06/13 04:50:35;;;;;;;9.77;3.67;;;;;;;;;;5011393;28;20050;-70
2022/06/13 04:53:02;;;;;;;7.97;3.40;;;;;;;;;;4993750;28;20061;-70
2022/06/13 04:55:40;;;;;;;10.27;3.55;;;;;;;;;;4977639;28;20069;-70
2022/06/13 04:58:21;;;;;;;7.47;3.25;;;;;;;;;;4993167;28;20394;-71
2022/06/13 05:00:48;;;;;;;9.23;3.13;;;;;;;;;;4993539;28;20397;-71
2022/06/13 05:03:23;;;;;;;5.40;2.63;;;;;;;;;;4977701;28;20053;-71
2022/06/13 05:05:53;;;;;;;12.60;3.67;;;;;;;;;;4982087;28;20054;-71
2022/06/13 05:08:28;;;;;;;11.75;3.75;;;;;;;;;;5000904;28;20049;-70
2022/06/13 05:11:05;;;;;;;11.40;3.78;;;;;;;;;;5017949;28;20070;-70
2022/06/13 05:13:31;;;;;;;8.00;3.60;;;;;;;;;;4983678;28;20053;-69
2022/06/13 05:16:27;;;;;;;7.65;2.85;;;;;;;;;;5021707;28;20050;-74
2022/06/13 05:19:22;;;;;;;7.13;3.35;;;;;;;;;;4967638;28;20045;-76
2022/06/13 05:21:54;;;;;;;9.45;4.03;;;;;;;;;;4995750;28;20168;-68
2022/06/13 05:24:33;;;;;;;6.90;2.92;;;;;;;;;;5009571;28;20050;-68
2022/06/13 05:27:06;;;;;;;10.38;3.30;;;;;;;;;;5012442;28;20501;-67
2022/06/13 05:29:33;;;;;;;8.98;3.55;;;;;;;;;;5010357;28;20045;-66
2022/06/13 05:32:00;;;;;;;10.65;3.50;;;;;;;;;;5009490;28;20050;-66
2022/06/13 05:34:32;;;;;;;8.65;3.10;;;;;;;;;;5013500;28;20056;-67
2022/06/13 05:36:59;;;;;;;7.00;2.88;;;;;;;;;;5000527;28;20286;-67
2022/06/13 05:39:25;;;;;;;7.43;2.90;;;;;;;;;;5015227;28;20115;-66
2022/06/13 05:41:52;;;;;;;8.93;2.42;;;;;;;;;;5013246;28;20049;-66
2022/06/13 05:44:19;;;;;;;11.60;3.33;;;;;;;;;;4998026;28;20054;-66
2022/06/13 05:46:46;;;;;;;7.53;2.90;;;;;;;;;;5011794;28;20068;-66
2022/06/13 05:49:13;;;;;;;6.88;3.53;;;;;;;;;;4992198;28;20141;-66
2022/06/13 05:51:41;;;;;;;8.00;3.22;;;;;;;;;;5011694;28;20050;-66
2022/06/13 05:54:11;;;;;;;5.78;2.88;;;;;;;;;;5011858;28;20065;-66
2022/06/13 05:56:38;;;;;;;8.20;2.70;;;;;;;;;;5013019;28;20425;-66
2022/06/13 05:59:05;;;;;;;5.75;2.53;;;;;;;;;;4994482;28;20421;-66
2022/06/13 06:01:34;;;;;;;7.75;3.25;;;;;;;;;;5011280;28;20046;-66
2022/06/13 06:04:04;;;;;;;7.18;3.15;;;;;;;;;;5011731;28;20547;-66
2022/06/13 06:06:34;;;;;;;6.60;2.83;;;;;;;;;;5012380;28;20045;-66
2022/06/13 06:09:01;;;;;;;11.32;3.30;;;;;;;;;;5011909;28;20046;-66
2022/06/13 06:11:28;;;;;;;6.22;2.72;;;;;;;;;;5026261;28;20042;-66
2022/06/13 06:13:56;;;;;;;8.50;2.33;;;;;;;;;;5031829;28;20049;-66
2022/06/13 06:16:24;;;;;;;5.28;2.20;;;;;;;;;;5031662;28;20072;-66
2022/06/13 06:18:51;;;;;;;5.93;2.53;;;;;;;;;;5014038;28;20481;-66
2022/06/13 06:21:18;;;;;;;6.40;2.88;;;;;;;;;;5031295;28;20049;-66
2022/06/13 06:23:45;;;;;;;6.50;2.10;;;;;;;;;;5031509;28;20494;-66
2022/06/13 06:26:21;;;;;;;10.80;2.22;;;;;;;;;;5018452;28;20050;-66
2022/06/13 06:28:49;;;;;;;5.57;2.40;;;;;;;;;;4998470;28;20137;-66
2022/06/13 06:31:15;;;;;;;4.68;1.80;;;;;;;;;;4998202;28;20053;-66
2022/06/13 06:33:42;;;;;;;6.97;2.38;;;;;;;;;;4998095;28;20058;-66
2022/06/13 06:36:10;;;;;;;7.90;2.50;;;;;;;;;;5015467;28;20058;-66
2022/06/13 06:38:37;;;;;;;4.72;2.13;;;;;;;;;;5007891;28;20049;-66
2022/06/13 06:41:03;;;;;;;8.70;2.80;;;;;;;;;;5035316;28;20523;-66
2022/06/13 06:43:30;;;;;;;7.72;2.40;;;;;;;;;;5035139;28;20400;-66
2022/06/13 06:45:57;;;;;;;3.15;1.63;;;;;;;;;;5035418;28;20054;-66
2022/06/13 06:48:24;;;;;;;5.35;1.75;;;;;;;;;;5035123;28;20045;-66
2022/06/13 06:50:51;;;;;;;6.53;2.10;;;;;;;;;;5034699;28;20522;-66
2022/06/13 06:53:20;;;;;;;7.35;2.33;;;;;;;;;;5029871;28;20041;-66
2022/06/13 07:01:24;;;;;;;6.05;2.13;;;;;;;;;;5034910;28;20059;-66
2022/06/13 07:03:50;;;;;;;5.88;2.10;;;;;;;;;;5017361;28;20557;-65
2022/06/13 07:06:17;;;;;;;6.55;2.40;;;;;;;;;;5034951;28;20061;-66
2022/06/13 07:08:44;;;;;;;4.95;1.80;;;;;;;;;;5019326;28;20060;-65
2022/06/13 07:14:08;;;;;;;5.40;1.98;;;;;;;;;;5000368;28;20053;-65
2022/06/13 07:16:35;;;;;;;4.10;1.70;;;;;;;;;;5014823;28;20046;-65
2022/06/13 07:19:02;;;;;;;7.25;1.95;;;;;;;;;;5014580;28;20057;-65
2022/06/13 07:21:28;;;;;;;4.35;1.77;;;;;;;;;;5016384;28;20464;-66
2022/06/13 07:23:55;;;;;;;6.10;1.98;;;;;;;;;;5014837;28;20049;-66
2022/06/13 07:26:22;;;;;;;7.38;2.47;;;;;;;;;;5014725;28;20463;-66
2022/06/13 07:28:54;;;;;;;5.22;1.83;;;;;;;;;;5015904;28;20145;-66
2022/06/13 07:31:23;;;;;;;6.75;2.22;;;;;;;;;;5034322;28;20046;-66
2022/06/13 07:33:51;;;;;;;5.70;2.10;;;;;;;;;;5016851;28;20176;-66
2022/06/13 07:36:18;;;;;;;4.32;2.05;;;;;;;;;;5032354;28;20053;-66
2022/06/13 07:38:45;;;;;;;3.05;1.85;;;;;;;;;;5033668;28;20061;-66
2022/06/13 07:41:17;;;;;;;3.33;1.35;;;;;;;;;;5033892;28;20488;-66
2022/06/13 07:43:44;;;;;;;4.70;1.80;;;;;;;;;;5034265;28;20087;-66
2022/06/13 07:46:11;;;;;;;4.70;1.73;;;;;;;;;;5016955;28;20045;-66
2022/06/13 07:48:38;;;;;;;7.38;1.83;;;;;;;;;;5016493;28;20510;-66
2022/06/13 07:51:05;;;;;;;6.43;2.45;;;;;;;;;;5033726;28;20519;-66
2022/06/13 07:53:33;;;;;;;5.25;2.25;;;;;;;;;;5032200;28;20514;-66
2022/06/13 07:56:22;;;;;;;7.90;2.45;;;;;;;;;;5034084;28;20087;-66
2022/06/13 07:58:52;;;;;;;5.90;1.77;;;;;;;;;;5033654;28;20056;-66
2022/06/13 08:01:19;;;;;;;6.72;1.95;;;;;;;;;;5033613;28;20064;-66
2022/06/13 08:03:46;;;;;;;8.35;2.75;;;;;;;;;;5016355;28;20046;-66
2022/06/13 08:06:13;;;;;;;7.32;2.13;;;;;;;;;;5033634;28;20527;-66
2022/06/13 08:08:40;;;;;;;7.68;2.10;;;;;;;;;;5023137;28;20053;-66
2022/06/13 08:11:08;;;;;;;7.28;2.25;;;;;;;;;;4996435;28;20081;-66
2022/06/13 08:13:36;;;;;;;6.72;2.20;;;;;;;;;;4996599;28;20053;-66
2022/06/13 08:16:03;;;;;;;9.82;2.10;;;;;;;;;;5013613;28;20049;-66
2022/06/13 08:18:30;;;;;;;6.85;2.13;;;;;;;;;;5013874;28;20064;-66
2022/06/13 08:20:56;;;;;;;6.32;2.10;;;;;;;;;;5013302;28;20124;-66
2022/06/13 08:23:24;;;;;;;7.97;2.35;;;;;;;;;;5023493;28;20103;-66
2022/06/13 08:25:50;;;;;;;10.75;2.22;;;;;;;;;;5033446;28;20416;-66
2022/06/13 08:28:17;;;;;;;6.28;2.03;;;;;;;;;;5033264;28;20049;-66
2022/06/13 08:31:11;;;;;;;7.97;2.45;;;;;;;;;;5032853;28;20049;-66
2022/06/13 08:33:38;;;;;;;4.35;1.75;;;;;;;;;;5031032;28;20050;-66
2022/06/13 08:36:06;;;;;;;9.43;2.20;;;;;;;;;;5015600;28;20500;-66
2022/06/13 08:38:33;;;;;;;3.17;1.60;;;;;;;;;;5013265;28;20492;-67
2022/06/13 08:41:18;;;;;;;5.45;2.15;;;;;;;;;;5013076;28;20058;-65
2022/06/13 08:43:48;;;;;;;6.18;2.15;;;;;;;;;;4980671;28;20053;-65
2022/06/13 08:46:41;;;;;;;6.55;2.30;;;;;;;;;;5013304;28;20049;-65
2022/06/13 08:49:22;;;;;;;7.00;1.98;;;;;;;;;;5015905;28;20052;-66
2022/06/13 08:52:01;;;;;;;6.43;2.70;;;;;;;;;;4989653;28;20080;-75
2022/06/13 08:54:32;;;;;;;5.38;1.80;;;;;;;;;;4990499;28;20138;-69
2022/06/13 08:56:59;;;;;;;7.75;2.50;;;;;;;;;;5001461;28;20060;-71
2022/06/13 08:59:34;;;;;;;6.03;1.70;;;;;;;;;;4999481;28;20505;-68
2022/06/13 09:02:24;;;;;;;8.68;2.35;;;;;;;;;;5001044;28;20124;-70
2022/06/13 09:05:04;;;;;;;8.05;2.13;;;;;;;;;;5005438;28;20054;-72
2022/06/13 09:07:43;;;;;;;6.80;2.08;;;;;;;;;;5013599;28;20069;-73
2022/06/13 09:10:31;;;;;;;5.60;2.13;;;;;;;;;;4969763;28;20054;-78
2022/06/13 09:13:04;;;;;;;6.68;1.92;;;;;;;;;;4995843;28;20515;-73
2022/06/13 09:15:40;;;;;;;8.13;2.47;;;;;;;;;;4983461;28;20050;-74
2022/06/13 09:18:46;;;;;;;7.43;2.35;;;;;;;;;;4982252;28;20049;-74
2022/06/13 09:21:26;;;;;;;5.78;2.17;;;;;;;;;;5042251;22;20087;-73
2022/06/13 09:24:02;;;;;;;4.72;2.00;;;;;;;;;;5034343;28;20037;-78
2022/06/13 09:26:50;;;;;;;6.53;2.92;;;;;;;;;;5030095;28;20392;-74
2022/06/13 09:29:33;;;;;;;7.32;1.95;;;;;;;;;;5035844;28;20496;-73
2022/06/13 09:32:19;;;;;;;5.40;2.28;;;;;;;;;;5047808;28;20060;-72
2022/06/13 09:34:59;;;;;;;8.88;2.42;;;;;;;;;;5049406;28;20041;-72
2022/06/13 09:37:36;;;;;;;3.95;1.83;;;;;;;;;;5033143;28;20045;-77
2022/06/13 09:40:04;;;;;;;8.27;3.05;;;;;;;;;;5030499;28;20071;-76
2022/06/13 09:42:52;;;;;;;6.70;2.40;;;;;;;;;;5049341;28;20049;-72
2022/06/13 09:45:37;;;;;;;8.57;2.30;;;;;;;;;;5050880;28;20060;-77
2022/06/13 09:48:35;;;;;;;5.50;2.20;;;;;;;;;;5050383;28;20076;-72
2022/06/13 09:51:14;;;;;;;7.50;2.42;;;;;;;;;;5048865;28;20060;-74
2022/06/13 09:53:54;;;;;;;6.95;2.00;;;;;;;;;;5046762;28;20049;-72
2022/06/13 09:56:39;;;;;;;4.90;1.85;;;;;;;;;;5049938;28;20118;-72
2022/06/13 09:59:26;;;;;;;5.50;1.67;;;;;;;;;;5046500;28;20135;-72
2022/06/13 10:02:03;;;;;;;5.07;1.73;;;;;;;;;;5049858;28;20083;-68
2022/06/13 10:04:44;;;;;;;4.85;1.80;;;;;;;;;;5032397;28;20455;-69
2022/06/13 10:07:19;;;;;;;4.35;1.48;;;;;;;;;;5052312;28;20518;-68
2022/06/13 10:10:12;;;;;;;3.60;1.65;;;;;;;;;;5047391;28;20048;-68
2022/06/13 10:13:19;;;;;;;5.20;1.63;;;;;;;;;;5046698;28;20049;-68
2022/06/13 10:16:08;;;;;;;5.55;2.17;;;;;;;;;;4987041;28;20049;-68
2022/06/13 10:18:41;;;;;;;6.03;1.63;;;;;;;;;;5047939;28;20056;-69
2022/06/13 10:21:14;;;;;;;3.28;1.80;;;;;;;;;;5048680;28;20048;-69
2022/06/13 10:23:48;;;;;;;8.43;2.05;;;;;;;;;;5048231;28;20068;-68
2022/06/13 10:26:43;;;;;;;5.60;1.80;;;;;;;;;;5030708;28;20045;-68
2022/06/13 10:29:27;;;;;;;5.50;1.63;;;;;;;;;;5048290;28;20079;-68
2022/06/13 10:32:32;;;;;;;8.35;2.47;;;;;;;;;;5049279;28;20044;-68
2022/06/13 10:35:22;;;;;;;5.03;1.50;;;;;;;;;;5015070;28;20049;-68
2022/06/13 10:38:10;;;;;;;6.53;1.48;;;;;;;;;;5012724;28;20037;-68
2022/06/13 10:40:37;;;;;;;4.65;2.00;;;;;;;;;;5050344;28;20055;-67
2022/06/13 10:43:04;;;;;;;7.05;2.22;;;;;;;;;;5048321;28;20085;-68
2022/06/13 10:45:32;;;;;;;4.15;1.63;;;;;;;;;;5048189;28;20503;-68
2022/06/13 10:48:06;;;;;;;3.25;1.30;;;;;;;;;;5031419;28;21652;-68
2022/06/13 10:50:45;;;;;;;4.82;1.50;;;;;;;;;;5049548;28;20052;-69
2022/06/13 10:53:41;;;;;;;3.90;1.83;;;;;;;;;;5048180;28;20075;-69
2022/06/13 10:56:27;;;;;;;5.13;2.38;;;;;;;;;;5045475;28;20056;-68
2022/06/13 10:58:56;;;;;;;3.00;1.63;;;;;;;;;;5047084;28;20095;-69
2022/06/13 11:01:25;;;;;;;3.85;1.73;;;;;;;;;;5049322;28;20511;-68
2022/06/13 11:04:03;;;;;;;3.85;1.52;;;;;;;;;;5046301;28;20561;-68
2022/06/13 11:06:44;;;;;;;13.13;1.67;;;;;;;;;;5049495;28;20071;-68
2022/06/13 11:09:23;;;;;;;6.75;1.58;;;;;;;;;;5047378;28;20049;-68
2022/06/13 11:11:55;;;;;;;2.50;1.20;;;;;;;;;;5035167;28;20499;-68
2022/06/13 11:14:32;;;;;;;5.30;1.30;;;;;;;;;;5034522;28;20553;-68
2022/06/13 11:22:43;;;;;;;4.05;1.70;;;;;;;;;;5052553;28;20156;-68
2022/06/13 11:25:14;;;;;;;4.85;1.70;;;;;;;;;;5059405;28;20064;-69
2022/06/13 11:27:41;;;;;;;3.60;1.50;;;;;;;;;;5051135;28;20061;-68
2022/06/13 11:30:29;;;;;;;2.97;1.50;;;;;;;;;;5052663;28;20140;-68
2022/06/13 11:33:32;;;;;;;4.72;1.38;;;;;;;;;;5051061;28;20557;-68
2022/06/13 11:35:59;;;;;;;;;;;;;;;;;;5052802;28;20045;-69
2022/06/13 11:38:30;;;;;;;3.67;1.30;;;;;;;;;;5052658;28;20288;-69
2022/06/13 11:41:17;;;;;;;4.75;1.38;;;;;;;;;;5048308;28;20071;-69
2022/06/13 11:43:59;;;;;;;4.38;1.23;;;;;;;;;;5051403;28;20048;-68
2022/06/13 11:46:26;;;;;;;4.40;1.15;;;;;;;;;;5050698;28;20060;-69
2022/06/13 11:49:11;;;;;;;3.53;1.40;;;;;;;;;;5052166;28;20056;-68
2022/06/13 11:51:57;;;;;;;4.47;1.40;;;;;;;;;;5049726;28;20064;-68
2022/06/13 11:54:30;;;;;;;4.45;1.50;;;;;;;;;;5052437;28;20330;-68
2022/06/13 11:57:09;;;;;;;;;;;;;;;;;;5024806;28;20084;-68
2022/06/13 11:59:57;;;;;;;2.30;1.42;;;;;;;;;;5052398;28;19920;-68
2022/06/13 12:02:35;;;;;;;4.25;1.33;;;;;;;;;;5050795;28;20175;-69
2022/06/13 12:05:14;;;;;;;4.65;1.80;;;;;;;;;;5051041;28;20056;-68
2022/06/13 12:07:50;;;;;;;3.63;1.52;;;;;;;;;;5051062;28;20086;-68
2022/06/13 12:10:23;;;;;;;4.55;1.48;;;;;;;;;;5051264;28;20051;-69
2022/06/13 12:12:49;;;;;;;2.80;1.60;;;;;;;;;;5048375;28;20083;-69
2022/06/13 12:15:16;;;;;;;4.40;1.73;;;;;;;;;;5052603;28;20400;-68
2022/06/13 12:17:48;;;;;;;2.53;1.23;;;;;;;;;;5051928;28;20053;-69
2022/06/13 12:20:55;;;;;;;4.70;1.23;;;;;;;;;;5050998;28;20132;-69
2022/06/13 12:23:30;;;;;;;3.08;1.42;;;;;;;;;;5001758;28;20051;-68
2022/06/13 12:26:21;;;;;;;6.10;1.48;;;;;;;;;;5049799;28;20118;-67
2022/06/13 12:28:59;;;;;;;5.50;1.50;;;;;;;;;;5040637;28;20045;-68
2022/06/13 12:31:37;;;;;;;3.03;1.38;;;;;;;;;;5051739;28;20049;-68
2022/06/13 12:34:23;;;;;;;2.30;1.30;;;;;;;;;;5050194;28;20048;-68
2022/06/13 12:37:16;;;;;;;2.85;1.33;;;;;;;;;;5049804;28;20392;-68
2022/06/13 12:40:18;;;;;;;3.67;1.10;;;;;;;;;;5023143;28;20049;-68
2022/06/13 12:43:13;;;;;;;3.22;1.58;;;;;;;;;;5046353;28;20049;-68
2022/06/13 12:45:58;;;;;;;6.30;1.20;;;;;;;;;;5051706;28;20495;-68
2022/06/13 12:48:38;;;;;;;1.50;1.00;;;;;;;;;;5050220;28;20041;-68
2022/06/13 12:51:04;;;;;;;2.05;1.05;;;;;;;;;;5050220;28;20057;-68
2022/06/13 12:53:48;;;;;;;2.28;1.05;;;;;;;;;;5051707;28;20057;-68
2022/06/13 12:56:52;;;;;;;4.10;1.20;;;;;;;;;;5045131;28;20045;-69
2022/06/13 12:59:49;;;;;;;3.67;1.38;;;;;;;;;;5047455;28;20515;-68
2022/06/13 13:02:33;;;;;;;0.93;0.82;;;;;;;;;;5042196;28;20128;-69
2022/06/13 13:05:16;;;;;;;1.92;1.10;;;;;;;;;;5043985;28;20060;-68
2022/06/13 13:07:54;;;;;;;3.03;0.90;;;;;;;;;;5045941;28;20095;-69
2022/06/13 13:10:39;;;;;;;2.03;1.20;;;;;;;;;;5050512;28;20515;-68
2022/06/13 13:13:11;;;;;;;3.50;1.00;;;;;;;;;;5045627;28;20041;-68
2022/06/13 13:15:47;;;;;;;3.95;1.42;;;;;;;;;;5048317;28;20053;-69
2022/06/13 13:18:20;;;;;;;2.00;1.10;;;;;;;;;;5049220;28;20049;-68
2022/06/13 13:20:52;;;;;;;5.25;0.95;;;;;;;;;;5048923;28;20057;-69
2022/06/13 13:23:37;;;;;;;2.58;0.98;;;;;;;;;;5031678;28;20584;-68
2022/06/13 13:26:26;;;;;;;3.72;1.13;;;;;;;;;;5047846;28;20056;-68
2022/06/13 13:29:06;;;;;;;1.73;1.02;;;;;;;;;;5044301;28;20045;-68
2022/06/13 13:31:42;;;;;;;1.67;0.93;;;;;;;;;;5052854;28;20049;-69
2022/06/13 13:34:40;;;;;;;3.67;1.25;;;;;;;;;;5060605;28;20052;-70
2022/06/13 13:37:24;;;;;;;2.63;1.00;;;;;;;;;;5061470;28;20055;-71
2022/06/13 13:40:06;;;;;;;1.95;0.90;;;;;;;;;;5061129;28;20075;-71
2022/06/13 13:42:53;;;;;;;1.30;0.70;;;;;;;;;;5055942;28;20049;-71
2022/06/13 13:45:31;;;;;;;2.50;1.00;;;;;;;;;;5048017;28;20465;-69
2022/06/13 13:48:39;;;;;;;4.13;1.00;;;;;;;;;;5047693;28;20053;-70
2022/06/13 13:51:24;;;;;;;4.20;1.00;;;;;;;;;;5058572;28;20049;-70
2022/06/13 13:54:08;;;;;;;2.67;1.00;;;;;;;;;;5049032;28;20052;-69
2022/06/13 13:56:40;;;;;;;1.63;1.08;;;;;;;;;;5046955;28;20053;-69
2022/06/13 13:59:09;;;;;;;;;;;;;;;;;;5049363;28;20045;-69
2022/06/13 14:01:37;;;;;;;1.45;0.77;;;;;;;;;;5050024;28;19925;-68
2022/06/13 14:04:22;;;;;;;1.67;0.85;;;;;;;;;;5045593;28;20132;-69
2022/06/13 14:07:19;;;;;;;2.53;1.10;;;;;;;;;;5050101;28;20060;-68
2022/06/13 14:09:47;;;;;;;4.63;1.27;;;;;;;;;;5049835;28;20052;-70
2022/06/13 14:12:14;;;;;;;1.98;1.00;;;;;;;;;;5036100;28;20045;-68
2022/06/13 14:14:47;;;;;;;3.05;1.10;;;;;;;;;;5046296;28;20067;-69
2022/06/13 14:17:36;;;;;;;2.80;1.38;;;;;;;;;;5049204;28;20041;-71
2022/06/13 14:20:08;;;;;;;2.08;0.95;;;;;;;;;;5050393;28;20048;-68
2022/06/13 14:22:42;;;;;;;1.73;0.97;;;;;;;;;;5047841;28;20048;-69
2022/06/13 14:25:15;;;;;;;3.83;1.20;;;;;;;;;;5063146;28;20055;-73
2022/06/13 14:27:49;;;;;;;2.90;1.00;;;;;;;;;;5046990;28;20047;-68
2022/06/13 14:35:11;;;;;;;4.22;1.10;;;;;;;;;;5045291;28;20064;-71
2022/06/13 14:36:09;;;;;;;2.65;1.10;;;;;;;;;;5047405;28;20045;-71
2022/06/13 14:38:41;;;;;;;2.03;1.20;;;;;;;;;;5045785;28;20072;-72
2022/06/13 14:41:31;;;;;;;2.85;1.23;;;;;;;;;;5047049;28;20053;-68
2022/06/13 14:44:14;;;;;;;3.75;1.38;;;;;;;;;;5047096;28;20452;-71
2022/06/13 14:47:04;;;;;;;4.43;1.30;;;;;;;;;;5041161;28;20081;-70
2022/06/13 14:49:48;;;;;;;2.22;1.10;;;;;;;;;;5047646;28;20053;-70
2022/06/13 14:52:19;;;;;;;2.28;1.25;;;;;;;;;;5049609;28;20068;-70
2022/06/13 14:54:46;;;;;;;1.80;1.20;;;;;;;;;;5052175;28;20442;-69
2022/06/13 14:57:27;;;;;;;1.80;1.27;;;;;;;;;;5047496;28;20064;-69
2022/06/13 15:00:03;;;;;;;3.97;1.52;;;;;;;;;;5050300;28;20579;-69
2022/06/13 15:02:35;;;;;;;2.88;1.30;;;;;;;;;;5051270;28;20055;-69
2022/06/13 15:05:07;;;;;;;3.28;1.20;;;;;;;;;;5031425;28;20076;-69
2022/06/13 15:07:45;;;;;;;3.60;1.25;;;;;;;;;;5050991;28;20411;-70
2022/06/13 15:10:21;;;;;;;1.98;0.88;;;;;;;;;;5048783;28;20045;-69
2022/06/13 15:12:48;;;;;;;3.30;1.30;;;;;;;;;;5047529;28;20048;-68
2022/06/13 15:15:27;;;;;;;4.40;1.42;;;;;;;;;;5051320;28;20053;-69
2022/06/13 15:17:55;;;;;;;2.08;1.23;;;;;;;;;;5050119;28;20059;-69
2022/06/13 15:20:28;;;;;;;2.67;1.23;;;;;;;;;;5051043;28;20052;-69
2022/06/13 15:22:59;;;;;;;3.65;1.20;;;;;;;;;;4999269;23;1156857;-68
2022/06/13 15:25:44;;;;;;;2.00;1.25;;;;;;;;;;5010363;28;20072;-67
2022/06/13 15:28:13;;;;;;;3.20;1.35;;;;;;;;;;5022277;28;20054;-66
2022/06/13 15:30:44;;;;;;;4.85;1.70;;;;;;;;;;5024133;28;20500;-67
2022/06/13 15:33:21;;;;;;;2.70;1.13;;;;;;;;;;5019844;28;20057;-68
2022/06/13 15:35:56;;;;;;;3.90;1.45;;;;;;;;;;5023131;28;20296;-67
2022/06/13 15:38:24;;;;;;;3.25;1.55;;;;;;;;;;5027484;28;20077;-67
2022/06/13 15:41:01;;;;;;;3.95;1.10;;;;;;;;;;5022146;28;20492;-68
2022/06/13 15:43:59;;;;;;;2.65;1.23;;;;;;;;;;5021817;28;20050;-67
2022/06/13 15:46:46;;;;;;;4.13;1.42;;;;;;;;;;5025225;28;20051;-68
2022/06/13 15:49:15;;;;;;;2.65;1.45;;;;;;;;;;5008463;28;20081;-67
2022/06/13 15:52:27;;;;;;;2.55;1.38;;;;;;;;;;5021084;28;20060;-67
2022/06/13 15:55:02;;;;;;;2.17;1.35;;;;;;;;;;5020752;28;20045;-68
2022/06/13 15:57:41;;;;;;;3.25;1.38;;;;;;;;;;5022451;28;20053;-67